Time;durP1;ratioP1;P1;durP2;ratioP2;P2;SDS_P1;SDS_P2;PMS_P1;PMS_P2;Temp;Humidity;BMP_temperature;BMP_pressure;BME280_temperature;BME280_humidity;BME280_pressure;Samples;Min_cycle;Max_cycle;Signal;HPM_P1;HPM_P2
2022/09/05 00:02:36;;;;;;;0.10;0.10;;;;;;;7.90;67.12;100162.91;5088714;28;20048;-70
2022/09/05 00:05:18;;;;;;;0.10;0.10;;;;;;;7.86;67.18;100156.31;5104554;28;20074;-70
2022/09/05 00:07:53;;;;;;;0.10;0.10;;;;;;;7.88;67.53;100167.78;5103623;28;20556;-70
2022/09/05 00:10:31;;;;;;;0.38;0.10;;;;;;;7.85;67.57;100162.81;5122853;27;20039;-70
2022/09/05 00:12:59;;;;;;;0.38;0.10;;;;;;;7.79;67.87;100159.19;5129089;27;20043;-70
2022/09/05 00:15:34;;;;;;;0.10;0.10;;;;;;;7.77;68.15;100167.59;5122532;27;20046;-70
2022/09/05 00:18:19;;;;;;;0.10;0.10;;;;;;;7.78;68.05;100171.97;5125825;27;20053;-70
2022/09/05 00:20:50;;;;;;;0.10;0.10;;;;;;;7.76;68.19;100163.22;5126422;27;20043;-76
2022/09/05 00:23:27;;;;;;;0.10;0.10;;;;;;;7.78;68.18;100168.44;5131843;27;20072;-70
2022/09/05 00:26:11;;;;;;;0.10;0.10;;;;;;;7.78;68.20;100173.88;5124509;27;20044;-70
2022/09/05 00:28:47;;;;;;;0.10;0.10;;;;;;;7.74;68.30;100168.09;5124187;27;20046;-70
2022/09/05 00:31:24;;;;;;;0.10;0.10;;;;;;;7.70;68.57;100163.38;5111462;27;20580;-70
2022/09/05 00:34:03;;;;;;;0.20;0.10;;;;;;;7.68;68.92;100162.81;5109867;28;20514;-77
2022/09/05 00:36:40;;;;;;;0.20;0.15;;;;;;;7.62;69.18;100156.44;5109143;28;20047;-77
2022/09/05 00:39:13;;;;;;;0.10;0.10;;;;;;;7.61;69.87;100160.25;5116178;27;20469;-77
2022/09/05 00:41:41;;;;;;;0.10;0.10;;;;;;;7.56;70.48;100155.53;5128479;27;20054;-76
2022/09/05 00:44:12;;;;;;;0.10;0.10;;;;;;;7.52;70.86;100162.53;5127768;27;20047;-76
2022/09/05 00:46:44;;;;;;;0.10;0.10;;;;;;;7.48;70.93;100156.75;5126050;27;20488;-77
2022/09/05 00:49:19;;;;;;;0.10;0.10;;;;;;;7.45;71.04;100159.16;5122647;27;20145;-77
2022/09/05 00:51:53;;;;;;;0.10;0.10;;;;;;;7.43;70.88;100158.59;5129591;27;20064;-76
2022/09/05 00:54:53;;;;;;;0.10;0.10;;;;;;;7.38;71.05;100160.13;5127334;27;20035;-77
2022/09/05 00:57:37;;;;;;;0.10;0.10;;;;;;;7.34;71.22;100155.44;5122877;27;20459;-77
2022/09/05 01:00:14;;;;;;;0.00;0.00;;;;;;;7.28;71.82;100151.81;5109695;27;20506;-77
2022/09/05 01:03:14;;;;;;;0.00;0.00;;;;;;;7.25;72.12;100155.00;5125645;27;20565;-77
2022/09/05 01:05:52;;;;;;;0.10;0.10;;;;;;;7.20;72.21;100149.47;5125674;27;20062;-77
2022/09/05 01:08:37;;;;;;;0.10;0.10;;;;;;;7.15;72.39;100146.66;5125954;27;20054;-77
2022/09/05 01:11:10;;;;;;;0.52;0.10;;;;;;;7.13;72.39;100137.94;5126305;27;20051;-76
2022/09/05 01:13:46;;;;;;;0.40;0.10;;;;;;;7.09;72.60;100146.53;5127118;27;20070;-77
2022/09/05 01:16:22;;;;;;;0.10;0.10;;;;;;;7.08;73.00;100139.47;5127371;27;20054;-77
2022/09/05 01:18:58;;;;;;;0.10;0.10;;;;;;;7.11;72.80;100143.59;5124610;27;20233;-77
2022/09/05 01:21:43;;;;;;;0.20;0.10;;;;;;;7.09;73.00;100143.03;5125010;27;20039;-78
2022/09/05 01:24:30;;;;;;;0.10;0.10;;;;;;;7.12;73.20;100139.00;5125888;27;20054;-77
2022/09/05 01:27:35;;;;;;;0.13;0.10;;;;;;;7.05;73.40;100137.22;5120459;27;20051;-77
2022/09/05 01:30:09;;;;;;;0.10;0.10;;;;;;;6.98;73.89;100143.88;5126328;27;20043;-78
2022/09/05 01:32:48;;;;;;;0.10;0.10;;;;;;;6.94;73.95;100140.81;5125271;27;20059;-77
2022/09/05 01:36:09;;;;;;;0.10;0.10;;;;;;;6.90;74.13;100139.66;5125405;27;20104;-76
2022/09/05 01:38:45;;;;;;;0.10;0.10;;;;;;;6.84;74.46;100138.72;5039267;28;20049;-70
2022/09/05 01:41:20;;;;;;;0.10;0.10;;;;;;;6.87;74.47;100138.25;5025869;28;20139;-70
2022/09/05 01:44:14;;;;;;;0.10;0.10;;;;;;;6.83;74.62;100128.13;5024831;28;20056;-70
2022/09/05 01:46:54;;;;;;;0.00;0.00;;;;;;;6.79;74.38;100127.75;5000812;28;20103;-70
2022/09/05 01:49:32;;;;;;;0.00;0.00;;;;;;;6.89;74.48;100133.41;5006938;28;20090;-71
2022/09/05 01:52:30;;;;;;;0.10;0.10;;;;;;;6.90;74.74;100126.06;5042705;28;20567;-71
2022/09/05 01:55:11;;;;;;;0.10;0.10;;;;;;;6.94;74.28;100125.34;5005699;28;20114;-70
2022/09/05 01:57:46;;;;;;;0.10;0.10;;;;;;;6.97;74.18;100128.63;5023981;28;20143;-70
2022/09/05 02:00:16;;;;;;;0.10;0.10;;;;;;;7.02;74.32;100121.41;5023501;28;20065;-78
2022/09/05 02:02:57;;;;;;;0.10;0.10;;;;;;;7.14;74.13;100113.19;5044307;28;20321;-77
2022/09/05 02:05:46;;;;;;;0.50;0.10;;;;;;;7.30;73.66;100121.63;5005706;28;20478;-77
2022/09/05 02:08:32;;;;;;;0.10;0.10;;;;;;;7.42;73.52;100124.28;5035036;27;20057;-77
2022/09/05 02:11:04;;;;;;;0.10;0.10;;;;;;;7.46;72.83;100120.00;5124918;27;20043;-77
2022/09/05 02:13:44;;;;;;;0.00;0.00;;;;;;;7.51;72.77;100131.81;5123597;27;20417;-78
2022/09/05 02:16:19;;;;;;;0.10;0.10;;;;;;;7.57;72.65;100135.44;5125079;27;20624;-77
2022/09/05 02:18:52;;;;;;;0.15;0.15;;;;;;;7.58;72.32;100133.53;5126503;27;20043;-77
2022/09/05 02:21:38;;;;;;;0.57;0.20;;;;;;;7.55;72.20;100139.47;5128415;27;20412;-77
2022/09/05 02:24:13;;;;;;;0.28;0.20;;;;;;;7.41;72.43;100123.47;5112032;27;20424;-71
2022/09/05 02:27:06;;;;;;;0.22;0.10;;;;;;;7.50;72.58;100135.59;5128356;27;20127;-71
2022/09/05 02:29:38;;;;;;;0.10;0.10;;;;;;;7.55;72.29;100137.56;5100324;27;20422;-70
2022/09/05 02:32:13;;;;;;;0.10;0.10;;;;;;;7.59;72.03;100140.63;5129907;27;20051;-69
2022/09/05 02:34:52;;;;;;;0.13;0.10;;;;;;;7.64;71.86;100143.41;5127223;27;20055;-71
2022/09/05 02:37:23;;;;;;;0.10;0.10;;;;;;;7.67;71.72;100137.50;5128840;27;20100;-71
2022/09/05 02:39:58;;;;;;;0.10;0.10;;;;;;;7.70;71.93;100137.00;5127625;27;20581;-77
2022/09/05 02:42:32;;;;;;;0.10;0.10;;;;;;;7.76;71.72;100141.44;5129158;27;20043;-71
2022/09/05 02:45:08;;;;;;;0.10;0.10;;;;;;;7.84;71.68;100139.41;5129879;27;20078;-71
2022/09/05 02:47:41;;;;;;;0.10;0.10;;;;;;;7.82;71.86;100138.81;5085691;28;20540;-71
2022/09/05 02:50:27;;;;;;;0.10;0.10;;;;;;;7.81;71.62;100127.09;5125119;27;20099;-78
2022/09/05 02:52:55;;;;;;;0.10;0.10;;;;;;;7.92;71.47;100134.34;5123551;27;20527;-78
2022/09/05 02:55:41;;;;;;;0.10;0.10;;;;;;;7.97;71.18;100136.34;5127536;27;20059;-78
2022/09/05 02:58:26;;;;;;;0.10;0.10;;;;;;;7.96;71.24;100134.69;5127372;27;20043;-77
2022/09/05 03:01:03;;;;;;;0.10;0.10;;;;;;;8.01;71.24;100136.63;5126160;27;20309;-78
2022/09/05 03:03:38;;;;;;;0.10;0.10;;;;;;;8.08;71.24;100138.13;5109468;27;20039;-78
2022/09/05 03:06:19;;;;;;;0.00;0.00;;;;;;;8.11;71.09;100135.97;5130030;27;20053;-76
2022/09/05 03:09:02;;;;;;;0.10;0.10;;;;;;;8.13;71.33;100140.09;5110309;27;20043;-77
2022/09/05 03:12:01;;;;;;;0.10;0.10;;;;;;;8.18;71.13;100134.72;5125125;27;20062;-78
2022/09/05 03:15:06;;;;;;;0.43;0.10;;;;;;;8.26;70.88;100144.34;5091642;27;20485;-78
2022/09/05 03:17:56;;;;;;;0.10;0.10;;;;;;;8.29;70.69;100135.72;5124807;27;20043;-78
2022/09/05 03:20:49;;;;;;;0.10;0.10;;;;;;;8.25;70.44;100134.53;5124139;27;20068;-78
2022/09/05 03:23:52;;;;;;;0.10;0.10;;;;;;;8.27;70.31;100134.28;5123915;27;20576;-77
2022/09/05 03:26:50;;;;;;;0.10;0.10;;;;;;;8.21;70.18;100139.69;5126111;27;20053;-78
2022/09/05 03:30:10;;;;;;;0.13;0.13;;;;;;;8.20;70.11;100134.47;5125624;27;20046;-77
2022/09/05 03:33:04;;;;;;;0.43;0.10;;;;;;;8.17;70.11;100140.44;5047110;28;20131;-77
2022/09/05 03:36:19;;;;;;;0.10;0.10;;;;;;;8.17;70.49;100141.25;5029204;28;20061;-77
2022/09/05 03:39:21;;;;;;;0.10;0.10;;;;;;;8.28;70.42;100136.78;5045545;28;20211;-70
2022/09/05 03:42:15;;;;;;;0.20;0.10;;;;;;;8.40;70.22;100144.84;5044343;28;20053;-70
2022/09/05 03:44:59;;;;;;;0.10;0.10;;;;;;;8.43;70.05;100140.75;5041626;28;20567;-70
2022/09/05 03:48:03;;;;;;;1.15;0.15;;;;;;;8.51;69.63;100134.91;5043857;28;20138;-70
2022/09/05 03:50:36;;;;;;;0.10;0.10;;;;;;;8.50;69.51;100136.00;5043952;28;20045;-70
2022/09/05 03:53:32;;;;;;;0.40;0.13;;;;;;;8.49;69.59;100131.59;5024407;28;20045;-70
2022/09/05 03:56:18;;;;;;;0.10;0.10;;;;;;;8.44;70.05;100137.78;5043123;28;20068;-71
2022/09/05 03:59:21;;;;;;;0.10;0.10;;;;;;;8.48;70.18;100130.75;5044510;28;20152;-71
2022/09/05 04:01:52;;;;;;;0.10;0.10;;;;;;;8.53;70.22;100135.50;5025898;28;20566;-71
2022/09/05 04:04:26;;;;;;;0.10;0.10;;;;;;;8.60;69.78;100133.41;5106237;27;20051;-71
2022/09/05 04:06:57;;;;;;;0.10;0.10;;;;;;;8.68;69.56;100128.59;5113574;27;20053;-71
2022/09/05 04:09:29;;;;;;;0.20;0.10;;;;;;;8.67;69.40;100132.38;5116307;27;20532;-71
2022/09/05 04:11:59;;;;;;;0.10;0.10;;;;;;;8.56;69.51;100134.97;5117645;27;20410;-70
2022/09/05 04:14:42;;;;;;;0.10;0.10;;;;;;;8.51;69.47;100133.03;5112925;27;20039;-77
2022/09/05 04:17:20;;;;;;;0.10;0.10;;;;;;;8.58;69.39;100132.81;5118834;27;20047;-70
2022/09/05 04:19:51;;;;;;;0.30;0.20;;;;;;;8.57;69.16;100136.63;5124352;27;20510;-70
2022/09/05 04:22:21;;;;;;;0.10;0.10;;;;;;;8.56;69.23;100143.16;5128045;27;20506;-70
2022/09/05 04:24:57;;;;;;;0.10;0.10;;;;;;;8.56;69.17;100140.44;5110051;27;20584;-71
2022/09/05 04:27:35;;;;;;;0.20;0.20;;;;;;;8.60;69.17;100141.59;5124073;27;20141;-77
2022/09/05 04:30:22;;;;;;;0.20;0.20;;;;;;;8.69;69.00;100144.69;5115649;27;20051;-77
2022/09/05 04:32:58;;;;;;;0.10;0.10;;;;;;;8.78;68.60;100136.91;5108230;27;20047;-77
2022/09/05 04:35:34;;;;;;;0.15;0.15;;;;;;;8.85;68.21;100126.59;5096827;28;20063;-77
2022/09/05 04:38:10;;;;;;;0.10;0.10;;;;;;;8.87;68.14;100131.81;5103272;28;20048;-77
2022/09/05 04:40:44;;;;;;;0.10;0.10;;;;;;;8.90;68.02;100129.41;5105671;28;20498;-77
2022/09/05 04:43:19;;;;;;;0.10;0.10;;;;;;;8.88;68.17;100136.19;5112525;27;20182;-77
2022/09/05 04:45:52;;;;;;;0.10;0.10;;;;;;;8.83;68.46;100139.66;5125401;27;20532;-77
2022/09/05 04:48:22;;;;;;;0.10;0.10;;;;;;;8.91;68.39;100135.66;5129972;27;20047;-77
2022/09/05 04:51:05;;;;;;;0.10;0.10;;;;;;;8.96;68.08;100135.72;5126402;27;20506;-78
2022/09/05 04:54:04;;;;;;;0.10;0.10;;;;;;;9.08;67.78;100124.69;5123977;27;20075;-78
2022/09/05 04:56:36;;;;;;;0.10;0.10;;;;;;;9.20;67.29;100127.25;4772354;27;10000130;-78
2022/09/05 04:59:09;;;;;;;0.22;0.20;;;;;;;9.39;66.93;100129.59;5110846;27;20039;-78
2022/09/05 05:01:45;;;;;;;0.10;0.10;;;;;;;9.41;66.78;100125.53;5120419;27;20517;-78
2022/09/05 05:04:15;;;;;;;0.10;0.10;;;;;;;9.49;66.63;100124.25;5117012;27;20058;-78
2022/09/05 05:06:49;;;;;;;0.10;0.10;;;;;;;9.49;66.54;100126.97;5116736;27;20043;-77
2022/09/05 05:09:20;;;;;;;0.20;0.20;;;;;;;9.60;66.28;100133.34;5105717;27;20054;-78
2022/09/05 05:11:53;;;;;;;0.20;0.20;;;;;;;9.65;66.10;100133.38;5122628;27;20069;-78
2022/09/05 05:14:24;;;;;;;0.20;0.20;;;;;;;9.75;65.73;100135.34;5123339;27;20107;-78
2022/09/05 05:16:56;;;;;;;0.10;0.10;;;;;;;9.84;65.33;100143.91;5126031;27;20051;-77
2022/09/05 05:19:29;;;;;;;0.10;0.10;;;;;;;9.89;64.83;100133.84;5095652;27;20054;-75
2022/09/05 05:21:58;;;;;;;0.20;0.20;;;;;;;9.89;65.00;100130.28;5127978;27;20042;-77
2022/09/05 05:24:29;;;;;;;0.10;0.10;;;;;;;10.00;64.84;100140.22;5121737;27;20047;-77
2022/09/05 05:27:03;;;;;;;0.10;0.10;;;;;;;10.01;64.56;100130.94;5099539;28;20089;-77
2022/09/05 05:29:37;;;;;;;0.85;0.30;;;;;;;10.10;64.45;100138.63;5104762;27;20035;-77
2022/09/05 05:32:06;;;;;;;0.20;0.20;;;;;;;10.23;64.01;100140.88;5104040;28;20529;-77
2022/09/05 05:34:35;;;;;;;0.22;0.22;;;;;;;10.26;63.18;100134.09;5120460;27;20055;-77
2022/09/05 05:37:07;;;;;;;0.15;0.10;;;;;;;10.16;63.35;100135.66;5116276;27;20043;-77
2022/09/05 05:39:40;;;;;;;0.38;0.30;;;;;;;10.14;63.54;100135.09;5114727;28;20059;-77
2022/09/05 05:42:14;;;;;;;0.20;0.20;;;;;;;10.23;63.38;100129.97;5089960;28;20557;-77
2022/09/05 05:44:48;;;;;;;0.20;0.20;;;;;;;10.43;62.53;100132.00;5113079;28;20039;-70
2022/09/05 05:47:20;;;;;;;0.20;0.20;;;;;;;10.66;61.85;100138.13;5121330;27;20047;-70
2022/09/05 05:49:58;;;;;;;0.10;0.10;;;;;;;10.85;61.24;100130.25;5128383;27;20043;-69
2022/09/05 05:52:51;;;;;;;0.20;0.20;;;;;;;11.09;60.51;100135.28;5128971;27;20053;-70
2022/09/05 05:55:52;;;;;;;0.20;0.20;;;;;;;11.42;59.37;100129.56;5127916;27;20047;-70
2022/09/05 05:58:32;;;;;;;0.20;0.20;;;;;;;11.75;58.48;100130.94;5105843;27;20928;-71
2022/09/05 06:01:40;;;;;;;0.20;0.20;;;;;;;11.85;58.39;100132.03;5127054;27;20091;-71
2022/09/05 06:04:47;;;;;;;0.20;0.20;;;;;;;11.87;58.12;100138.06;5130722;27;20589;-71
2022/09/05 06:07:24;;;;;;;0.45;0.30;;;;;;;11.80;58.01;100137.50;5128795;27;20063;-71
2022/09/05 06:10:23;;;;;;;0.63;0.28;;;;;;;11.70;58.42;100132.88;5129191;27;20051;-71
2022/09/05 06:13:33;;;;;;;1.67;0.30;;;;;;;11.76;58.06;100131.75;5094868;27;20059;-71
2022/09/05 06:16:40;;;;;;;0.32;0.30;;;;;;;12.11;57.27;100143.00;5125383;27;20044;-72
2022/09/05 06:19:44;;;;;;;0.30;0.20;;;;;;;12.28;56.28;100131.72;5129852;27;20146;-71
2022/09/05 06:22:41;;;;;;;0.25;0.25;;;;;;;12.39;55.98;100144.28;5091344;28;20529;-78
2022/09/05 06:25:44;;;;;;;0.47;0.30;;;;;;;12.55;55.60;100139.59;5112218;27;20047;-78
2022/09/05 06:28:20;;;;;;;0.20;0.20;;;;;;;12.67;54.62;100136.53;5112637;27;20071;-71
2022/09/05 17:36:38;;;;;;;0.10;0.10;;;;;;;9.85;68.67;99987.97;3814980;28;10000864;-70
2022/09/05 17:39:25;;;;;;;0.10;0.10;;;;;;;9.82;68.44;99998.59;4937194;28;20055;-71
2022/09/05 17:42:03;;;;;;;0.10;0.10;;;;;;;9.82;68.67;99998.59;4951448;28;20081;-70
2022/09/05 17:44:41;;;;;;;0.10;0.10;;;;;;;9.81;69.10;100003.25;4914643;28;20089;-70
2022/09/05 17:47:17;;;;;;;0.00;0.00;;;;;;;9.64;69.32;99982.41;4946886;28;20081;-70
2022/09/05 17:49:45;;;;;;;0.10;0.10;;;;;;;9.79;69.55;100013.63;4963972;28;20130;-70
2022/09/05 17:52:22;;;;;;;0.10;0.10;;;;;;;9.82;69.88;100012.25;4964976;28;20051;-70
2022/09/05 17:54:51;;;;;;;;;;;;;;;9.79;69.81;100016.34;4964619;28;20039;-69
2022/09/05 17:57:40;;;;;;;0.10;0.10;;;;;;;9.72;69.33;100013.00;4950207;28;19984;-70
2022/09/05 18:00:47;;;;;;;0.10;0.10;;;;;;;9.65;68.91;100015.97;4951450;28;20053;-70
2022/09/05 18:04:01;;;;;;;0.10;0.10;;;;;;;9.62;69.16;100008.31;4953094;28;20109;-70
2022/09/05 18:06:31;;;;;;;0.10;0.10;;;;;;;9.60;69.72;100014.06;4957391;28;20394;-69
2022/09/05 18:09:04;;;;;;;0.10;0.10;;;;;;;9.60;70.15;100015.94;4954627;28;20058;-69
2022/09/05 18:11:38;;;;;;;0.08;0.08;;;;;;;9.64;70.22;100019.78;4929924;28;20054;-70
2022/09/05 18:14:20;;;;;;;0.10;0.10;;;;;;;9.69;70.38;100017.13;4966875;28;20050;-70
2022/09/05 18:16:48;;;;;;;0.10;0.10;;;;;;;9.76;70.61;100022.34;4962186;28;20182;-70
2022/09/05 18:19:59;;;;;;;0.00;0.00;;;;;;;9.81;70.89;100029.72;4967515;28;20066;-70
2022/09/05 18:22:29;;;;;;;0.00;0.00;;;;;;;9.83;70.85;100022.09;4965669;28;20066;-70
2022/09/05 18:25:07;;;;;;;0.15;0.10;;;;;;;9.85;70.93;100020.75;4933679;28;20117;-69
2022/09/05 18:27:45;;;;;;;0.10;0.10;;;;;;;9.87;71.00;100023.22;4934177;28;20049;-69
2022/09/05 18:30:27;;;;;;;0.32;0.10;;;;;;;9.90;71.25;100023.50;4958029;28;20043;-69
2022/09/05 18:33:10;;;;;;;0.10;0.10;;;;;;;9.91;71.29;100019.69;4944498;28;20057;-69
2022/09/05 18:35:38;;;;;;;0.20;0.20;;;;;;;9.87;71.42;100020.50;4966240;28;20062;-69
2022/09/05 18:38:17;;;;;;;0.10;0.10;;;;;;;9.82;71.36;100010.34;4949848;28;20146;-70
2022/09/05 18:40:54;;;;;;;0.10;0.10;;;;;;;9.80;71.61;100018.00;4959800;28;20434;-69
2022/09/05 18:43:29;;;;;;;0.00;0.00;;;;;;;9.76;71.56;100017.69;4965333;28;20422;-69
2022/09/05 18:46:00;;;;;;;0.00;0.00;;;;;;;9.74;71.66;100013.56;4963382;28;20054;-69
2022/09/05 18:48:33;;;;;;;0.10;0.10;;;;;;;9.71;71.79;100016.84;4963711;28;20533;-69
2022/09/05 18:51:02;;;;;;;0.10;0.10;;;;;;;9.69;71.56;100024.47;4948923;28;20530;-69
2022/09/05 18:53:33;;;;;;;0.10;0.10;;;;;;;9.65;71.62;100018.69;4947703;28;20050;-69
2022/09/05 18:56:11;;;;;;;0.40;0.10;;;;;;;9.70;71.69;100013.28;4947925;28;20046;-70
2022/09/05 18:58:47;;;;;;;0.10;0.10;;;;;;;9.73;71.42;100014.66;4962899;28;20142;-70
2022/09/05 19:01:21;;;;;;;0.10;0.10;;;;;;;9.73;71.36;100011.94;4967898;28;20047;-70
2022/09/05 19:03:52;;;;;;;0.40;0.10;;;;;;;9.76;71.16;100017.69;4952130;28;20631;-70
2022/09/05 19:06:23;;;;;;;0.10;0.10;;;;;;;9.77;71.18;100008.41;4966300;28;20514;-69
2022/09/05 19:08:55;;;;;;;0.10;0.10;;;;;;;9.77;70.84;99999.41;4950099;28;20061;-69
2022/09/05 19:11:29;;;;;;;0.10;0.10;;;;;;;9.76;70.78;100001.31;4936526;28;20054;-69
2022/09/05 19:14:05;;;;;;;0.10;0.10;;;;;;;9.82;70.81;100007.63;4951462;28;20078;-69
2022/09/05 19:16:34;;;;;;;0.10;0.10;;;;;;;9.87;70.64;100007.63;4953263;28;20061;-69
2022/09/05 19:19:09;;;;;;;0.10;0.10;;;;;;;9.84;70.54;99994.53;4969791;28;20433;-69
2022/09/05 19:21:37;;;;;;;0.10;0.10;;;;;;;9.83;70.50;100001.06;4949779;28;20050;-70
2022/09/05 19:24:09;;;;;;;0.10;0.10;;;;;;;9.80;70.78;99998.88;4951183;28;20043;-69
2022/09/05 19:26:37;;;;;;;0.10;0.10;;;;;;;9.77;70.71;99992.03;4968687;28;20054;-70
2022/09/05 19:29:08;;;;;;;0.10;0.10;;;;;;;9.77;70.65;100004.88;4951346;28;20050;-70
2022/09/05 19:31:38;;;;;;;0.10;0.10;;;;;;;9.75;70.94;100005.13;4951204;28;20533;-69
2022/09/05 19:34:09;;;;;;;0.10;0.10;;;;;;;9.73;71.17;100004.56;4968745;28;20051;-69
2022/09/05 19:36:39;;;;;;;0.10;0.10;;;;;;;9.72;71.25;100002.94;4953562;28;20104;-69
2022/09/05 19:39:10;;;;;;;0.10;0.10;;;;;;;9.72;71.53;99994.75;4936209;28;20070;-69
2022/09/05 19:41:41;;;;;;;0.00;0.00;;;;;;;9.70;71.58;99991.44;4966436;28;20061;-70
2022/09/05 19:44:23;;;;;;;0.10;0.10;;;;;;;9.69;71.63;99995.28;4951917;28;20135;-69
2022/09/05 19:46:49;;;;;;;0.10;0.10;;;;;;;9.68;71.56;99992.78;4967625;28;20063;-69
2022/09/05 19:49:16;;;;;;;0.10;0.10;;;;;;;9.69;71.98;99999.91;4967593;28;20222;-69
2022/09/05 19:51:42;;;;;;;0.10;0.10;;;;;;;9.68;71.60;99993.63;4951018;28;20129;-69
2022/09/05 19:54:23;;;;;;;0.10;0.10;;;;;;;9.69;71.60;99994.44;4949809;28;20677;-70
2022/09/05 19:56:56;;;;;;;0.10;0.10;;;;;;;9.64;71.64;99982.41;4969236;28;20059;-69
2022/09/05 19:59:28;;;;;;;0.35;0.10;;;;;;;9.61;71.73;99980.22;4990255;28;20050;-69
2022/09/05 20:01:55;;;;;;;0.10;0.10;;;;;;;9.59;71.79;99982.34;4988871;28;20042;-69
2022/09/05 20:04:22;;;;;;;0.10;0.10;;;;;;;9.60;71.98;99988.66;4963604;28;20438;-68
2022/09/05 20:06:49;;;;;;;0.10;0.10;;;;;;;9.57;71.95;99990.00;4934262;28;20085;-69
2022/09/05 20:09:18;;;;;;;0.10;0.10;;;;;;;9.51;72.12;99980.94;4947465;28;20106;-70
2022/09/05 20:11:48;;;;;;;0.20;0.10;;;;;;;9.47;72.18;99988.03;4947212;28;20043;-70
2022/09/05 20:14:21;;;;;;;0.10;0.10;;;;;;;9.44;72.21;99987.72;4967778;28;20686;-69
2022/09/05 20:16:49;;;;;;;0.10;0.10;;;;;;;9.39;72.11;99984.97;4950031;28;20061;-69
2022/09/05 20:19:23;;;;;;;0.10;0.10;;;;;;;9.34;72.46;99980.28;4968508;28;20133;-69
2022/09/05 20:21:50;;;;;;;0.10;0.10;;;;;;;9.32;72.10;99985.19;4953007;28;20051;-69
2022/09/05 20:24:17;;;;;;;0.00;0.00;;;;;;;9.29;72.29;99988.44;4968210;28;20039;-69
2022/09/05 20:26:46;;;;;;;0.10;0.10;;;;;;;9.27;72.48;99980.50;4964462;28;20597;-69
2022/09/05 20:29:20;;;;;;;0.43;0.15;;;;;;;9.25;72.68;99987.31;4947737;28;20569;-69
2022/09/05 20:31:48;;;;;;;0.10;0.10;;;;;;;9.19;73.00;99986.47;4970469;28;20053;-69
2022/09/05 20:34:24;;;;;;;0.10;0.10;;;;;;;9.16;72.79;99976.88;4968011;28;20053;-69
2022/09/05 20:36:53;;;;;;;0.10;0.10;;;;;;;9.08;72.90;99991.03;4969641;28;20157;-68
2022/09/05 20:39:22;;;;;;;0.10;0.10;;;;;;;9.04;73.08;99987.16;4969733;28;20055;-69
2022/09/05 20:41:49;;;;;;;0.00;0.00;;;;;;;9.01;73.31;99988.50;4950068;28;20061;-70
2022/09/05 20:44:18;;;;;;;0.10;0.10;;;;;;;8.96;73.41;99982.19;4951735;28;20050;-69
2022/09/05 20:46:52;;;;;;;0.10;0.10;;;;;;;9.02;73.55;99986.59;4968255;28;20070;-69
2022/09/05 20:49:22;;;;;;;0.10;0.10;;;;;;;9.00;73.47;99983.31;4956995;28;20039;-69
2022/09/05 20:51:51;;;;;;;0.00;0.00;;;;;;;9.01;73.32;99983.06;4972109;28;20473;-69
2022/09/05 20:54:21;;;;;;;0.10;0.10;;;;;;;9.06;72.98;99974.91;4972094;28;20039;-69
2022/09/05 20:56:48;;;;;;;0.10;0.10;;;;;;;9.07;72.81;99975.75;4971976;28;20191;-69
2022/09/05 20:59:24;;;;;;;0.10;0.10;;;;;;;9.06;72.99;99968.63;4981618;28;20066;-69
2022/09/05 21:01:57;;;;;;;0.00;0.00;;;;;;;9.06;72.69;99976.81;4948727;28;20050;-70
2022/09/05 21:04:31;;;;;;;0.10;0.10;;;;;;;8.98;72.81;99969.09;4974180;28;20046;-70
2022/09/05 21:07:10;;;;;;;0.10;0.10;;;;;;;8.86;73.30;99977.47;4939767;28;20043;-69
2022/09/05 21:09:54;;;;;;;0.00;0.00;;;;;;;8.84;73.56;99983.16;4974001;28;20070;-70
2022/09/05 21:12:23;;;;;;;0.10;0.10;;;;;;;8.85;73.59;99973.91;4978853;28;20130;-69
2022/09/05 21:14:59;;;;;;;0.10;0.10;;;;;;;8.88;73.40;99978.84;4938854;28;20046;-69
2022/09/05 21:17:27;;;;;;;0.10;0.10;;;;;;;8.89;73.29;99983.19;4949816;28;20051;-69
2022/09/05 21:19:56;;;;;;;0.10;0.10;;;;;;;8.88;73.21;99976.09;4934585;28;20157;-69
2022/09/05 21:22:30;;;;;;;0.10;0.10;;;;;;;8.85;73.54;99971.19;4944820;28;20047;-68
2022/09/05 21:25:18;;;;;;;0.10;0.10;;;;;;;8.80;73.87;99982.03;4946322;28;20113;-68
2022/09/05 21:28:02;;;;;;;0.10;0.10;;;;;;;8.80;73.78;99980.13;4964885;28;20526;-69
2022/09/05 21:30:30;;;;;;;0.10;0.10;;;;;;;8.84;73.98;99977.72;4964625;28;20090;-71
2022/09/05 21:33:02;;;;;;;0.10;0.10;;;;;;;8.85;73.65;99979.34;4946546;28;20145;-69
2022/09/05 21:35:29;;;;;;;0.10;0.10;;;;;;;8.85;73.64;99970.38;4931373;28;20047;-70
2022/09/05 21:37:55;;;;;;;0.10;0.10;;;;;;;8.85;73.47;99973.91;4948874;28;20066;-69
2022/09/05 21:40:22;;;;;;;0.10;0.10;;;;;;;8.89;73.49;99971.50;4962702;28;20407;-69
2022/09/05 21:42:48;;;;;;;0.10;0.10;;;;;;;8.96;73.31;99979.47;4944886;28;20082;-69
2022/09/05 21:45:17;;;;;;;0.10;0.10;;;;;;;8.99;73.27;99966.13;4946432;28;20051;-69
2022/09/05 21:47:45;;;;;;;0.10;0.10;;;;;;;8.99;73.15;99966.13;4930517;28;20162;-69
2022/09/05 21:50:13;;;;;;;0.10;0.10;;;;;;;8.93;73.20;99969.88;4946877;28;20066;-69
2022/09/05 21:52:40;;;;;;;0.10;0.10;;;;;;;8.91;73.25;99956.53;4962425;28;20421;-69
2022/09/05 21:55:07;;;;;;;0.10;0.10;;;;;;;8.91;73.36;99959.25;4947414;28;20042;-69
2022/09/05 21:57:35;;;;;;;0.10;0.10;;;;;;;8.88;73.26;99950.75;4963589;28;20046;-70
2022/09/05 22:00:03;;;;;;;0.00;0.00;;;;;;;8.83;73.21;99967.88;4965742;28;20155;-69
2022/09/05 22:02:31;;;;;;;0.10;0.10;;;;;;;8.79;73.44;99958.59;4964282;28;20074;-70
2022/09/05 22:04:59;;;;;;;;;;;;;;;8.75;73.59;99963.72;4968028;28;20149;-69
2022/09/05 22:07:27;;;;;;;0.10;0.10;;;;;;;8.64;73.75;99954.63;4947029;28;19929;-69
2022/09/05 22:09:54;;;;;;;0.10;0.10;;;;;;;8.54;74.21;99959.97;4966012;28;20043;-69
2022/09/05 22:12:20;;;;;;;0.10;0.10;;;;;;;8.46;74.64;99958.50;4964219;28;20070;-68
2022/09/05 22:14:46;;;;;;;0.10;0.10;;;;;;;8.42;74.60;99953.81;4964034;28;20102;-69
2022/09/05 22:17:13;;;;;;;0.10;0.10;;;;;;;8.36;74.74;99963.88;4948259;28;20073;-68
2022/09/05 22:19:40;;;;;;;0.10;0.10;;;;;;;8.30;74.86;99954.81;4950975;28;20046;-68
2022/09/05 22:22:14;;;;;;;0.10;0.10;;;;;;;8.29;74.94;99955.06;4951133;28;20058;-69
2022/09/05 22:24:45;;;;;;;0.10;0.10;;;;;;;8.33;74.90;99950.75;4952367;28;20070;-69
2022/09/05 22:27:13;;;;;;;0.00;0.00;;;;;;;8.39;74.55;99955.19;4932961;28;20541;-69
2022/09/05 22:29:39;;;;;;;0.10;0.10;;;;;;;8.45;74.03;99947.88;4965724;28;20058;-70
2022/09/05 22:32:05;;;;;;;0.10;0.10;;;;;;;8.52;73.89;99951.25;4950018;28;20054;-69
2022/09/05 22:34:32;;;;;;;0.20;0.10;;;;;;;8.56;73.32;99949.63;4950292;28;20488;-68
2022/09/05 22:36:58;;;;;;;0.10;0.10;;;;;;;8.59;73.18;99946.44;4952250;28;20054;-69
2022/09/05 22:39:24;;;;;;;0.10;0.10;;;;;;;8.60;73.29;99950.78;4969193;28;20541;-70
2022/09/05 22:41:52;;;;;;;0.10;0.10;;;;;;;8.62;73.71;99948.63;4917673;29;20051;-69
2022/09/05 22:44:18;;;;;;;;;;;;;;;8.61;73.90;99944.25;4947154;29;20146;-70
2022/09/05 22:46:44;;;;;;;0.10;0.10;;;;;;;8.60;73.98;99942.63;4953246;28;20378;-69
2022/09/05 22:49:10;;;;;;;0.15;0.10;;;;;;;8.61;73.90;99944.25;4934177;29;20054;-68
2022/09/05 22:51:36;;;;;;;0.10;0.10;;;;;;;8.62;73.89;99942.34;4951058;28;20198;-69
2022/09/05 22:54:02;;;;;;;2.25;0.32;;;;;;;8.57;73.96;99939.56;4950701;29;20425;-70
2022/09/05 22:56:29;;;;;;;0.40;0.30;;;;;;;8.61;73.99;99949.72;4963124;28;20125;-69
2022/09/05 22:58:56;;;;;;;0.10;0.10;;;;;;;8.63;73.96;99952.16;4952401;28;20063;-69
2022/09/05 23:01:22;;;;;;;0.10;0.10;;;;;;;8.62;74.06;99943.19;4969341;28;20492;-69
2022/09/05 23:03:49;;;;;;;0.43;0.10;;;;;;;8.60;73.79;99945.34;4952296;28;20513;-69
2022/09/05 23:06:15;;;;;;;0.10;0.10;;;;;;;8.57;73.91;99936.84;4917637;28;20543;-69
2022/09/05 23:08:41;;;;;;;0.10;0.10;;;;;;;8.53;73.92;99943.91;4932744;28;20133;-69
2022/09/05 23:11:09;;;;;;;0.10;0.10;;;;;;;8.48;73.90;99937.28;4952701;28;20051;-69
2022/09/05 23:13:35;;;;;;;0.10;0.10;;;;;;;8.43;74.21;99941.84;4951109;28;20147;-68
2022/09/05 23:16:03;;;;;;;0.10;0.10;;;;;;;8.44;74.05;99944.31;4951577;28;20121;-69
2022/09/05 23:18:30;;;;;;;0.10;0.10;;;;;;;8.50;73.76;99951.50;4969295;28;20107;-68
2022/09/05 23:20:59;;;;;;;0.10;0.10;;;;;;;8.55;73.52;99944.47;4935396;28;20573;-69
2022/09/05 23:23:25;;;;;;;0.10;0.10;;;;;;;8.59;73.36;99949.16;4964846;28;20061;-69
2022/09/05 23:25:52;;;;;;;0.10;0.10;;;;;;;8.66;73.16;99951.63;4952500;28;20145;-69
2022/09/05 23:28:18;;;;;;;0.03;0.03;;;;;;;8.71;72.91;99946.25;4951698;28;20051;-69